createdAt,value
2022-12-23T00:01:16.780Z,89.92
2022-12-23T00:04:19.710Z,89.58
2022-12-23T00:07:22.555Z,89.91
2022-12-23T00:10:25.335Z,89.48
2022-12-23T00:13:47.049Z,90.18
2022-12-23T00:16:50.855Z,90.46
2022-12-23T00:19:54.111Z,90.16
2022-12-23T00:23:05.976Z,90.56
2022-12-23T00:26:16.676Z,90.22
2022-12-23T00:29:19.447Z,89.94
2022-12-23T00:32:22.268Z,90.64
2022-12-23T00:35:25.118Z,90.40
2022-12-23T00:38:47.183Z,89.75
2022-12-23T00:42:08.503Z,90.21
2022-12-23T00:45:17.388Z,90.16
2022-12-23T00:48:38.725Z,89.85
2022-12-23T00:51:41.587Z,89.81
2022-12-23T00:54:44.570Z,89.48
2022-12-23T00:57:47.491Z,89.30
2022-12-23T01:01:08.976Z,89.06
2022-12-23T01:04:33.129Z,89.17
2022-12-23T01:07:35.912Z,89.22
2022-12-23T01:10:40.123Z,89.17
2022-12-23T01:13:42.970Z,89.09
2022-12-23T01:16:46.375Z,89.17
2022-12-23T01:19:49.240Z,88.92
2022-12-23T01:22:51.968Z,88.75
2022-12-23T01:26:04.741Z,88.71
2022-12-23T01:29:07.601Z,88.57
2022-12-23T01:32:10.546Z,88.81
2022-12-23T01:35:13.441Z,88.88
2022-12-23T01:38:16.265Z,89.06
2022-12-23T01:41:49.657Z,88.74
2022-12-23T01:45:18.628Z,88.75
2022-12-23T01:48:27.341Z,88.75
2022-12-23T01:51:30.372Z,88.92
2022-12-23T01:54:34.517Z,88.94
2022-12-23T01:57:41.289Z,88.95
2022-12-23T02:01:02.878Z,88.88
2022-12-23T02:04:10.238Z,88.88
2022-12-23T02:07:32.790Z,88.77
2022-12-23T02:11:00.798Z,88.47
2022-12-23T02:14:59.977Z,88.34
2022-12-23T02:18:21.238Z,87.99
2022-12-23T02:21:36.392Z,87.91
2022-12-23T02:25:04.310Z,87.92
2022-12-23T02:28:46.087Z,88.16
2022-12-23T02:32:06.990Z,88.15
2022-12-23T02:35:14.736Z,88.12
2022-12-23T02:38:43.694Z,88.09
2022-12-23T02:41:49.223Z,87.85
2022-12-23T02:45:04.354Z,87.55
2022-12-23T02:48:19.127Z,87.28
2022-12-23T02:51:29.019Z,87.22
2022-12-23T02:54:38.836Z,87.04
2022-12-23T02:57:47.055Z,87.24
2022-12-23T03:00:50.073Z,87.44
2022-12-23T03:03:53.141Z,87.56
2022-12-23T03:07:01.694Z,87.73
2022-12-23T03:10:55.774Z,87.96
2022-12-23T03:14:14.016Z,87.91
2022-12-23T03:17:25.657Z,88.07
2022-12-23T03:21:02.714Z,88.01
2022-12-23T03:24:22.966Z,88.11
2022-12-23T03:27:30.448Z,88.24
2022-12-23T03:30:35.594Z,88.52
2022-12-23T03:33:42.604Z,88.35
2022-12-23T03:36:59.061Z,88.55
2022-12-23T03:40:08.620Z,88.86
2022-12-23T03:43:18.795Z,88.88
2022-12-23T03:46:31.445Z,88.84
2022-12-23T03:49:43.960Z,88.86
2022-12-23T03:53:01.355Z,88.65
2022-12-23T03:56:09.543Z,88.55
2022-12-23T03:59:18.857Z,88.81
2022-12-23T04:02:40.262Z,89.00
2022-12-23T04:05:50.613Z,88.85
2022-12-23T04:08:54.140Z,88.77
2022-12-23T04:11:58.355Z,88.95
2022-12-23T04:15:01.294Z,88.83
2022-12-23T04:18:04.154Z,89.00
2022-12-23T04:21:06.964Z,88.85
2022-12-23T04:24:09.769Z,88.86
2022-12-23T04:27:14.839Z,88.96
2022-12-23T04:30:18.683Z,89.02
2022-12-23T04:33:21.563Z,89.28
2022-12-23T04:36:24.387Z,89.52
2022-12-23T04:39:27.265Z,89.59
2022-12-23T04:42:30.153Z,89.59
2022-12-23T04:45:33.365Z,89.43
2022-12-23T04:48:36.174Z,89.28
2022-12-23T04:51:38.964Z,89.48
2022-12-23T04:54:45.987Z,89.45
2022-12-23T04:57:49.224Z,89.52
2022-12-23T05:01:07.368Z,89.65
2022-12-23T05:04:10.731Z,89.61
2022-12-23T05:07:13.533Z,89.60
2022-12-23T05:10:16.477Z,89.43
2022-12-23T05:13:19.328Z,89.36
2022-12-23T05:16:22.194Z,89.42
2022-12-23T05:19:25.085Z,89.54
2022-12-23T05:22:27.946Z,89.32
2022-12-23T05:25:32.647Z,89.23
2022-12-23T05:28:35.757Z,89.14
2022-12-23T05:31:38.674Z,89.13
2022-12-23T05:34:41.536Z,89.12
2022-12-23T05:37:44.347Z,89.18
2022-12-23T05:40:48.239Z,89.27
2022-12-23T05:43:51.084Z,89.25
2022-12-23T05:46:53.964Z,89.23
2022-12-23T05:49:56.769Z,89.15
2022-12-23T05:52:59.594Z,88.98
2022-12-23T05:56:06.518Z,89.02
2022-12-23T05:59:09.500Z,88.84
2022-12-23T06:02:12.445Z,89.02
2022-12-23T06:05:15.373Z,88.92
2022-12-23T06:08:18.396Z,88.89
2022-12-23T06:11:21.445Z,88.81
2022-12-23T06:14:28.874Z,88.67
2022-12-23T06:17:32.532Z,88.41
2022-12-23T06:20:35.423Z,88.32
2022-12-23T06:23:38.208Z,88.32
2022-12-23T06:26:42.680Z,88.36
2022-12-23T06:29:45.665Z,88.41
2022-12-23T06:32:48.521Z,88.25
2022-12-23T06:35:51.313Z,88.30
2022-12-23T06:38:54.163Z,88.09
2022-12-23T06:41:57.031Z,88.01
2022-12-23T06:44:59.807Z,88.13
2022-12-23T06:48:02.678Z,88.14
2022-12-23T06:51:05.694Z,88.08
2022-12-23T06:54:11.931Z,88.13
2022-12-23T06:57:14.636Z,87.83
2022-12-23T07:00:17.707Z,87.98
2022-12-23T07:03:20.544Z,87.98
2022-12-23T07:06:23.496Z,88.00
2022-12-23T07:09:26.507Z,87.91
2022-12-23T07:12:29.422Z,87.74
2022-12-23T07:15:32.275Z,87.73
2022-12-23T07:18:35.510Z,87.74
2022-12-23T07:21:38.837Z,87.71
2022-12-23T07:24:41.625Z,87.74
2022-12-23T07:27:44.535Z,87.78
2022-12-23T07:30:47.526Z,87.88
2022-12-23T07:33:50.391Z,87.81
2022-12-23T07:36:54.005Z,87.98
2022-12-23T07:39:56.827Z,88.09
2022-12-23T07:42:59.916Z,88.16
2022-12-23T07:46:07.595Z,88.20
2022-12-23T07:49:10.579Z,88.06
2022-12-23T07:52:13.382Z,87.82
2022-12-23T07:55:16.470Z,87.70
2022-12-23T07:58:19.639Z,87.67
2022-12-23T08:01:23.048Z,87.72
2022-12-23T08:04:25.939Z,87.57
2022-12-23T08:07:28.849Z,87.49
2022-12-23T08:10:31.653Z,87.24
2022-12-23T08:13:37.604Z,87.21
2022-12-23T08:16:44.019Z,87.09
2022-12-23T08:19:48.594Z,86.97
2022-12-23T08:22:51.524Z,86.73
2022-12-23T08:26:03.845Z,86.76
2022-12-23T08:29:06.732Z,86.55
2022-12-23T08:32:09.718Z,86.32
2022-12-23T08:35:12.474Z,86.31
2022-12-23T08:38:15.265Z,86.00
2022-12-23T08:41:22.154Z,85.94
2022-12-23T08:44:29.970Z,85.74
2022-12-23T08:47:33.688Z,85.36
2022-12-23T08:50:38.570Z,84.96
2022-12-23T08:53:41.725Z,84.65
2022-12-23T08:56:44.897Z,84.39
2022-12-23T08:59:47.919Z,84.36
2022-12-23T09:02:51.026Z,84.15
2022-12-23T09:05:54.119Z,84.23
2022-12-23T09:08:57.655Z,84.35
2022-12-23T09:12:00.414Z,83.94
2022-12-23T09:15:03.569Z,83.72
2022-12-23T09:18:06.374Z,83.79
2022-12-23T09:21:15.087Z,83.46
2022-12-23T09:24:18.022Z,83.18
2022-12-23T09:27:20.852Z,83.01
2022-12-23T09:30:23.825Z,82.87
2022-12-23T09:33:26.661Z,82.89
2022-12-23T09:36:30.045Z,82.42
2022-12-23T09:39:33.627Z,81.74
2022-12-23T09:42:51.570Z,81.84
2022-12-23T09:46:00.351Z,81.32
2022-12-23T09:49:13.603Z,81.24
2022-12-23T09:52:23.273Z,81.16
2022-12-23T09:55:40.469Z,81.03
2022-12-23T09:58:53.089Z,81.27
2022-12-23T10:02:11.476Z,81.75
2022-12-23T10:05:26.871Z,81.77
2022-12-23T10:08:45.182Z,81.85
2022-12-23T10:11:54.071Z,81.75
2022-12-23T10:15:01.272Z,82.06
2022-12-23T10:18:12.478Z,81.68
2022-12-23T10:21:31.257Z,81.98
2022-12-23T10:24:38.935Z,82.24
2022-12-23T10:27:44.333Z,81.99
2022-12-23T10:34:38.692Z,81.98
2022-12-23T10:37:49.268Z,82.24
2022-12-23T10:41:09.705Z,81.97
2022-12-23T10:44:28.148Z,81.87
2022-12-23T10:48:05.126Z,81.96
2022-12-23T10:51:19.947Z,81.27
2022-12-23T10:54:34.672Z,81.35
2022-12-23T10:57:37.827Z,80.84
2022-12-23T11:00:45.641Z,80.48
2022-12-23T11:03:55.779Z,80.08
2022-12-23T11:07:26.267Z,79.93
2022-12-23T11:10:25.787Z,79.75
2022-12-23T11:13:43.356Z,79.68
2022-12-23T11:16:47.191Z,79.45
2022-12-23T11:20:13.203Z,79.50
2022-12-23T11:23:31.328Z,79.72
2022-12-23T11:26:35.691Z,79.58
2022-12-23T11:29:50.183Z,79.68
2022-12-23T11:32:53.278Z,79.87
2022-12-23T11:36:08.748Z,80.15
2022-12-23T11:39:24.440Z,80.11
2022-12-23T11:42:30.356Z,80.13
2022-12-23T11:45:36.079Z,79.68
2022-12-23T11:48:39.882Z,79.76
2022-12-23T11:51:45.234Z,79.46
2022-12-23T11:54:57.041Z,79.26
2022-12-23T11:58:01.785Z,79.27
2022-12-23T12:01:15.785Z,79.48
2022-12-23T12:04:24.629Z,79.21
2022-12-23T12:07:29.146Z,79.01
2022-12-23T12:10:36.482Z,79.26
2022-12-23T12:13:45.574Z,78.70
2022-12-23T12:17:02.606Z,78.76
2022-12-23T12:20:20.981Z,79.12
2022-12-23T12:23:45.888Z,79.66
2022-12-23T12:26:52.907Z,79.15
2022-12-23T12:30:08.360Z,79.24
2022-12-23T12:33:19.560Z,79.53
2022-12-23T12:36:33.470Z,79.30
2022-12-23T12:39:42.474Z,79.60
2022-12-23T12:42:55.700Z,79.98
2022-12-23T12:46:21.706Z,80.13
2022-12-23T12:49:57.162Z,80.62
2022-12-23T12:53:10.363Z,80.73
2022-12-23T12:56:25.570Z,81.01
2022-12-23T12:59:33.986Z,81.11
2022-12-23T13:03:08.169Z,81.12
2022-12-23T13:06:36.652Z,81.10
2022-12-23T13:10:01.331Z,81.11
2022-12-23T13:13:23.229Z,81.40
2022-12-23T13:16:57.529Z,81.55
2022-12-23T13:20:22.127Z,81.49
2022-12-23T13:23:45.090Z,81.05
2022-12-23T13:26:59.215Z,81.26
2022-12-23T13:30:20.332Z,81.74
2022-12-23T13:33:39.312Z,81.88
2022-12-23T13:37:17.164Z,81.61
2022-12-23T13:40:51.949Z,81.47
2022-12-23T13:44:06.568Z,81.24
2022-12-23T13:47:32.223Z,81.42
2022-12-23T13:50:53.789Z,81.27
2022-12-23T13:54:25.240Z,81.50
2022-12-23T13:57:54.493Z,81.65
2022-12-23T14:01:22.264Z,81.67
2022-12-23T14:04:36.188Z,81.72
2022-12-23T14:07:56.282Z,81.67
2022-12-23T14:11:18.777Z,81.79
2022-12-23T14:14:25.236Z,81.78
2022-12-23T14:17:45.373Z,82.11
2022-12-23T14:21:02.211Z,82.36
2022-12-23T14:24:36.423Z,82.51
2022-12-23T14:28:01.569Z,82.70
2022-12-23T14:31:05.869Z,83.30
2022-12-23T14:34:18.034Z,83.52
2022-12-23T14:37:20.800Z,83.45
2022-12-23T14:40:39.026Z,83.86
2022-12-23T14:43:45.764Z,83.67
2022-12-23T14:46:48.709Z,83.72
2022-12-23T14:49:51.711Z,83.51
2022-12-23T14:53:00.296Z,83.70
2022-12-23T14:56:16.924Z,83.90
2022-12-23T14:59:32.769Z,84.01
2022-12-23T15:02:39.229Z,84.10
2022-12-23T15:05:42.975Z,84.53
2022-12-23T15:08:50.554Z,84.76
2022-12-23T15:11:56.142Z,85.17
2022-12-23T15:15:03.504Z,85.34
2022-12-23T15:18:12.431Z,85.56
2022-12-23T15:21:15.295Z,85.54
2022-12-23T15:24:21.871Z,85.43
2022-12-23T15:27:28.378Z,85.13
2022-12-23T15:30:46.023Z,85.05
2022-12-23T15:34:02.795Z,85.65
2022-12-23T15:37:12.487Z,85.09
2022-12-23T15:40:38.120Z,84.94
2022-12-23T15:43:42.714Z,84.87
2022-12-23T15:46:45.658Z,85.19
2022-12-23T15:49:48.573Z,85.23
2022-12-23T15:52:54.660Z,85.10
2022-12-23T15:55:57.511Z,85.04
2022-12-23T15:59:01.916Z,84.90
2022-12-23T16:02:58.395Z,85.06
2022-12-23T16:05:44.957Z,85.19
2022-12-23T16:09:01.297Z,85.08
2022-12-23T16:12:18.765Z,85.19
2022-12-23T16:15:33.315Z,85.28
2022-12-23T16:18:47.214Z,85.15
2022-12-23T16:21:50.914Z,85.24
2022-12-23T16:25:11.304Z,85.13
2022-12-23T16:28:24.429Z,84.99
2022-12-23T16:31:28.248Z,84.58
2022-12-23T16:34:31.644Z,84.50
2022-12-23T16:37:34.403Z,84.34
2022-12-23T16:40:37.295Z,84.19
2022-12-23T16:43:43.337Z,84.36
2022-12-23T16:46:52.513Z,84.61
2022-12-23T16:49:55.407Z,84.67
2022-12-23T16:52:58.212Z,84.51
2022-12-23T16:56:01.527Z,84.77
2022-12-23T16:59:04.933Z,84.67
2022-12-23T17:02:21.317Z,84.79
2022-12-23T17:05:24.412Z,84.82
2022-12-23T17:08:27.887Z,84.83
2022-12-23T17:11:39.887Z,85.01
2022-12-23T17:14:42.788Z,85.23
2022-12-23T17:17:46.019Z,85.23
2022-12-23T17:20:49.356Z,85.19
2022-12-23T17:23:56.811Z,85.30
2022-12-23T17:26:59.682Z,85.49
2022-12-23T17:30:02.461Z,85.61
2022-12-23T17:33:05.441Z,85.81
2022-12-23T17:36:11.170Z,85.56
2022-12-23T17:39:14.237Z,85.30
2022-12-23T17:42:25.288Z,85.18
2022-12-23T17:45:30.739Z,84.89
2022-12-23T17:48:33.576Z,84.75
2022-12-23T17:51:38.474Z,85.04
2022-12-23T17:54:42.197Z,85.41
2022-12-23T17:57:45.159Z,85.58
2022-12-23T18:00:48.001Z,85.62
2022-12-23T18:03:51.509Z,85.52
2022-12-23T18:06:54.310Z,85.41
2022-12-23T18:09:57.171Z,85.42
2022-12-23T18:13:02.922Z,85.48
2022-12-23T18:16:05.803Z,85.53
2022-12-23T18:19:19.946Z,85.82
2022-12-23T18:22:24.802Z,86.08
2022-12-23T18:25:27.761Z,86.41
2022-12-23T18:28:30.791Z,86.76
2022-12-23T18:31:34.306Z,86.23
2022-12-23T18:34:41.434Z,86.68
2022-12-23T18:37:44.454Z,86.60
2022-12-23T18:40:49.752Z,86.28
2022-12-23T18:43:53.422Z,86.03
2022-12-23T18:46:56.290Z,85.98
2022-12-23T18:49:59.206Z,86.05
2022-12-23T18:53:02.086Z,86.21
2022-12-23T18:56:04.978Z,86.15
2022-12-23T18:59:16.165Z,86.08
2022-12-23T19:02:19.114Z,85.88
2022-12-23T19:05:34.372Z,85.81
2022-12-23T19:08:37.840Z,86.21
2022-12-23T19:11:40.638Z,86.72
2022-12-23T19:14:43.399Z,86.85
2022-12-23T19:17:47.139Z,86.93
2022-12-23T19:20:50.114Z,86.86
2022-12-23T19:23:52.833Z,86.79
2022-12-23T19:26:55.776Z,86.63
2022-12-23T19:29:59.193Z,86.59
2022-12-23T19:33:02.054Z,86.74
2022-12-23T19:36:17.064Z,86.56
2022-12-23T19:39:21.971Z,86.17
2022-12-23T19:42:25.086Z,85.95
2022-12-23T19:45:28.163Z,85.77
2022-12-23T19:48:31.285Z,85.95
2022-12-23T19:51:34.173Z,85.93
2022-12-23T19:54:36.984Z,86.15
2022-12-23T19:57:39.935Z,86.12
2022-12-23T20:00:42.716Z,86.22
2022-12-23T20:03:47.216Z,86.23
2022-12-23T20:06:50.081Z,86.09
2022-12-23T20:09:53.278Z,86.09
2022-12-23T20:12:56.172Z,86.16
2022-12-23T20:15:59.293Z,86.12
2022-12-23T20:19:03.203Z,86.21
2022-12-23T20:22:06.016Z,86.29
2022-12-23T20:25:09.158Z,86.29
2022-12-23T20:28:12.241Z,86.43
2022-12-23T20:31:19.355Z,86.48
2022-12-23T20:34:22.220Z,86.65
2022-12-23T20:37:25.013Z,86.45
2022-12-23T20:40:28.058Z,86.34
2022-12-23T20:43:31.394Z,86.28
2022-12-23T20:46:34.256Z,86.34
2022-12-23T20:49:37.248Z,86.17
2022-12-23T20:52:40.176Z,86.07
2022-12-23T20:55:43.052Z,86.03
2022-12-23T20:58:54.930Z,85.89
2022-12-23T21:01:59.506Z,86.17
2022-12-23T21:05:02.664Z,86.18
2022-12-23T21:08:06.219Z,86.13
2022-12-23T21:11:09.233Z,86.32
2022-12-23T21:14:13.502Z,86.31
2022-12-23T21:17:16.411Z,86.24
2022-12-23T21:20:19.245Z,86.22
2022-12-23T21:23:22.000Z,86.09
2022-12-23T21:26:28.293Z,85.78
2022-12-23T21:29:31.018Z,85.87
2022-12-23T21:32:33.910Z,85.93
2022-12-23T21:35:36.815Z,85.86
2022-12-23T21:38:42.300Z,85.95
2022-12-23T21:41:46.120Z,85.98
2022-12-23T21:44:49.393Z,86.21
2022-12-23T21:47:52.383Z,86.34
2022-12-23T21:50:55.635Z,86.46
2022-12-23T21:53:59.880Z,86.24
2022-12-23T21:57:02.765Z,86.22
2022-12-23T22:00:06.452Z,86.24
2022-12-23T22:03:09.408Z,86.41
2022-12-23T22:06:26.459Z,86.47
2022-12-23T22:09:29.908Z,86.79
2022-12-23T22:12:32.819Z,86.81
2022-12-23T22:15:40.651Z,86.58
2022-12-23T22:18:44.304Z,86.72
2022-12-23T22:21:47.069Z,87.07
2022-12-23T22:24:49.938Z,87.05
2022-12-23T22:27:52.748Z,86.85
2022-12-23T22:31:01.709Z,86.99
2022-12-23T22:34:06.356Z,87.01
2022-12-23T22:37:09.217Z,86.98
2022-12-23T22:40:12.342Z,87.31
2022-12-23T22:43:15.484Z,87.19
2022-12-23T22:46:18.619Z,87.51
2022-12-23T22:49:21.700Z,87.85
2022-12-23T22:52:24.517Z,88.16
2022-12-23T22:55:27.450Z,88.25
2022-12-23T22:58:32.455Z,88.27
2022-12-23T23:01:36.493Z,87.99
2022-12-23T23:04:39.448Z,88.47
2022-12-23T23:07:43.340Z,88.22
2022-12-23T23:10:46.241Z,88.60
2022-12-23T23:13:49.223Z,88.73
2022-12-23T23:16:54.088Z,88.70
2022-12-23T23:19:57.023Z,88.55
2022-12-23T23:22:59.849Z,88.36
2022-12-23T23:26:03.751Z,88.77
2022-12-23T23:29:06.592Z,88.89
2022-12-23T23:32:09.817Z,88.96
2022-12-23T23:35:12.908Z,89.04
2022-12-23T23:38:15.849Z,89.40
2022-12-23T23:41:22.934Z,89.58
2022-12-23T23:44:26.698Z,89.46
2022-12-23T23:47:34.492Z,89.43
2022-12-23T23:50:37.702Z,89.44
2022-12-23T23:53:40.788Z,89.48
2022-12-23T23:56:43.660Z,89.47
2022-12-23T23:59:46.516Z,89.53
